createdAt,value
2022-10-23T00:02:18.196Z,3.17
2022-10-23T00:07:34.260Z,2.67
2022-10-23T00:13:25.807Z,2.55
2022-10-23T00:18:45.997Z,2.95
2022-10-23T00:29:32.258Z,2.42
2022-10-23T00:35:09.426Z,2.55
2022-10-23T00:40:39.377Z,4.25
2022-10-23T00:51:58.499Z,2.33
2022-10-23T01:03:28.557Z,2.70
2022-10-23T01:08:55.846Z,2.17
2022-10-23T01:14:19.070Z,2.33
2022-10-23T01:19:52.340Z,1.95
2022-10-23T01:25:27.277Z,2.35
2022-10-23T01:30:43.229Z,2.05
2022-10-23T01:36:06.306Z,2.33
2022-10-23T01:41:28.193Z,1.67
2022-10-23T01:46:53.597Z,2.00
2022-10-23T01:52:00.379Z,1.48
2022-10-23T01:57:09.545Z,1.77
2022-10-23T02:02:21.870Z,1.75
2022-10-23T02:07:38.351Z,1.48
2022-10-23T02:12:52.398Z,1.55
2022-10-23T02:18:24.044Z,1.80
2022-10-23T02:23:34.252Z,1.27
2022-10-23T02:28:43.486Z,1.77
2022-10-23T02:33:52.147Z,1.80
2022-10-23T02:39:00.449Z,2.05
2022-10-23T02:44:15.366Z,2.97
2022-10-23T02:49:33.605Z,2.88
2022-10-23T02:54:48.997Z,3.35
2022-10-23T03:00:04.262Z,3.72
2022-10-23T03:05:14.525Z,4.18
2022-10-23T03:10:25.332Z,4.60
2022-10-23T03:15:32.735Z,4.72
2022-10-23T03:20:43.911Z,5.50
2022-10-23T03:25:49.238Z,5.90
2022-10-23T03:31:07.870Z,5.93
2022-10-23T03:36:16.127Z,6.55
2022-10-23T03:41:30.844Z,6.78
2022-10-23T03:46:45.407Z,6.35
2022-10-23T03:52:09.259Z,6.50
2022-10-23T03:57:25.440Z,7.45
2022-10-23T04:09:41.006Z,8.40
2022-10-23T04:14:55.408Z,9.10
2022-10-23T04:20:02.470Z,7.88
2022-10-23T04:25:20.774Z,9.27
2022-10-23T04:30:45.010Z,7.22
2022-10-23T04:35:54.893Z,7.63
2022-10-23T04:41:12.915Z,7.25
2022-10-23T04:46:33.155Z,7.60
2022-10-23T04:58:26.230Z,6.90
2022-10-23T05:03:42.467Z,7.22
2022-10-23T05:08:52.150Z,8.38
2022-10-23T05:14:11.134Z,8.75
2022-10-23T05:19:32.197Z,9.38
2022-10-23T05:24:37.359Z,9.23
2022-10-23T05:29:42.762Z,8.75
2022-10-23T05:34:51.906Z,9.00
2022-10-23T05:39:57.115Z,10.73
2022-10-23T05:45:03.833Z,9.27
2022-10-23T05:50:12.602Z,9.75
2022-10-23T05:55:21.444Z,11.05
2022-10-23T06:00:33.463Z,9.57
2022-10-23T06:06:25.844Z,9.75
2022-10-23T06:11:34.253Z,7.95
2022-10-23T06:16:44.221Z,8.15
2022-10-23T06:21:56.514Z,7.70
2022-10-23T06:27:17.904Z,7.60
2022-10-23T06:38:40.128Z,7.65
2022-10-23T06:44:19.395Z,8.23
2022-10-23T06:49:24.545Z,7.13
2022-10-23T06:54:37.216Z,7.13
2022-10-23T06:59:46.664Z,8.82
2022-10-23T07:05:13.864Z,8.38
2022-10-23T07:10:22.243Z,5.90
2022-10-23T07:15:31.612Z,6.07
2022-10-23T07:21:07.500Z,6.50
2022-10-23T07:32:38.263Z,9.27
2022-10-23T07:38:07.943Z,9.13
2022-10-23T07:49:34.448Z,10.15
2022-10-23T07:55:00.554Z,9.50
2022-10-23T08:12:08.258Z,9.15
2022-10-23T08:17:16.134Z,8.60
2022-10-23T08:22:23.402Z,9.35
2022-10-23T08:27:28.591Z,7.57
2022-10-23T08:32:42.863Z,6.80
2022-10-23T08:37:50.753Z,6.57
2022-10-23T08:43:06.197Z,7.38
2022-10-23T08:48:58.086Z,6.78
2022-10-23T08:54:08.722Z,8.60
2022-10-23T08:59:26.501Z,10.40
2022-10-23T09:04:35.408Z,10.15
2022-10-23T09:09:59.912Z,9.05
2022-10-23T09:15:17.728Z,8.63
2022-10-23T09:20:59.092Z,7.80
2022-10-23T09:26:15.615Z,8.27
2022-10-23T09:37:53.554Z,7.75
2022-10-23T11:08:57.563Z,5.93
2022-10-23T16:24:19.849Z,3.95
2022-10-23T16:36:53.912Z,4.95
2022-10-23T16:49:09.204Z,5.55
2022-10-23T17:56:13.998Z,5.63
2022-10-23T18:01:52.111Z,5.72
2022-10-23T18:07:04.675Z,6.07
2022-10-23T18:17:41.690Z,6.63
2022-10-23T18:22:58.961Z,5.97
2022-10-23T18:33:35.871Z,5.80
2022-10-23T18:52:50.802Z,5.40
2022-10-23T19:09:36.808Z,5.95
2022-10-23T19:14:48.421Z,6.95
2022-10-23T19:32:06.432Z,9.05
2022-10-23T19:37:11.579Z,6.53
2022-10-23T19:42:43.823Z,6.82
2022-10-23T19:47:51.876Z,6.88
2022-10-23T19:53:40.926Z,7.20
2022-10-23T19:58:51.075Z,7.65
2022-10-23T20:03:59.114Z,7.00
2022-10-23T20:09:06.178Z,8.35
2022-10-23T20:14:21.009Z,7.40
2022-10-23T20:19:33.342Z,7.80
2022-10-23T20:25:26.704Z,8.25
2022-10-23T23:22:28.957Z,11.65
2022-10-23T23:27:37.515Z,12.38
2022-10-23T23:32:49.026Z,9.65
2022-10-23T23:38:03.350Z,8.52
2022-10-23T23:44:01.897Z,8.65
2022-10-23T23:54:55.717Z,7.95
